createdAt,value
2019-02-15T00:01:36.150Z,0.73
2019-02-15T00:04:05.732Z,0.77
2019-02-15T00:06:35.301Z,0.81
2019-02-15T00:09:06.115Z,0.87
2019-02-15T00:11:35.637Z,0.95
2019-02-15T00:14:05.537Z,0.84
2019-02-15T00:16:41.082Z,0.81
2019-02-15T00:19:12.262Z,0.85
2019-02-15T00:21:42.018Z,0.86
2019-02-15T00:24:11.622Z,0.84
2019-02-15T00:26:41.290Z,0.80
2019-02-15T00:29:10.854Z,0.77
2019-02-15T00:31:40.640Z,0.80
2019-02-15T00:34:10.465Z,0.85
2019-02-15T00:36:40.058Z,0.87
2019-02-15T00:39:10.176Z,0.75
2019-02-15T00:41:39.733Z,0.63
2019-02-15T00:44:09.377Z,0.68
2019-02-15T00:46:40.979Z,0.69
2019-02-15T00:49:12.403Z,0.68
2019-02-15T00:51:43.577Z,0.72
2019-02-15T00:54:14.793Z,0.69
2019-02-15T00:56:45.966Z,0.63
2019-02-15T00:59:17.121Z,0.58
2019-02-15T01:01:48.320Z,0.64
2019-02-15T01:04:19.494Z,0.62
2019-02-15T01:06:50.641Z,0.65
2019-02-15T01:09:21.814Z,0.62
2019-02-15T01:11:53.070Z,0.53
2019-02-15T01:14:22.926Z,0.37
2019-02-15T01:16:52.544Z,0.46
2019-02-15T01:19:22.203Z,0.48
2019-02-15T01:21:51.796Z,0.49
2019-02-15T01:24:21.796Z,0.37
2019-02-15T01:27:12.339Z,0.43
2019-02-15T01:29:43.539Z,0.40
2019-02-15T01:32:14.732Z,0.42
2019-02-15T01:34:45.907Z,0.40
2019-02-15T01:37:18.588Z,0.45
2019-02-15T01:39:49.842Z,0.43
2019-02-15T01:42:21.007Z,0.26
2019-02-15T01:44:52.194Z,0.29
2019-02-15T01:47:22.048Z,0.28
2019-02-15T01:49:52.791Z,0.34
2019-02-15T01:52:22.398Z,0.31
2019-02-15T01:54:52.062Z,0.34
2019-02-15T01:57:21.646Z,0.27
2019-02-15T01:59:51.236Z,0.32
2019-02-15T02:02:22.418Z,0.25
2019-02-15T02:04:52.016Z,0.22
2019-02-15T02:07:21.638Z,0.18
2019-02-15T02:09:51.380Z,0.13
2019-02-15T02:12:20.961Z,0.06
2019-02-15T02:14:50.558Z,0.18
2019-02-15T02:17:20.131Z,0.30
2019-02-15T02:19:49.701Z,0.31
2019-02-15T02:22:19.312Z,0.22
2019-02-15T02:24:48.886Z,0.23
2019-02-15T02:27:18.457Z,0.12
2019-02-15T02:29:48.137Z,0.15
2019-02-15T02:32:17.746Z,0.08
2019-02-15T02:34:47.355Z,0.10
2019-02-15T02:37:16.965Z,0.09
2019-02-15T02:39:46.525Z,0.13
2019-02-15T02:42:16.099Z,0.16
2019-02-15T02:44:45.682Z,0.06
2019-02-15T02:47:15.276Z,0.10
2019-02-15T02:49:44.854Z,0.08
2019-02-15T02:52:14.463Z,0.00
2019-02-15T02:54:44.030Z,-0.03
2019-02-15T02:57:13.807Z,-0.05
2019-02-15T02:59:43.415Z,-0.13
2019-02-15T03:02:13.002Z,0.00
2019-02-15T03:04:42.596Z,-0.01
2019-02-15T03:07:12.361Z,0.04
2019-02-15T03:09:41.952Z,-0.01
2019-02-15T03:12:11.526Z,-0.04
2019-02-15T03:14:41.168Z,-0.13
2019-02-15T03:17:10.691Z,-0.02
2019-02-15T03:19:40.281Z,-0.08
2019-02-15T03:22:09.913Z,0.01
2019-02-15T03:24:39.475Z,-0.01
2019-02-15T03:27:09.129Z,-0.05
2019-02-15T03:29:38.827Z,-0.02
2019-02-15T03:32:08.556Z,0.06
2019-02-15T03:34:38.160Z,0.06
2019-02-15T03:37:09.350Z,0.03
2019-02-15T03:39:40.521Z,-0.01
2019-02-15T03:42:11.869Z,-0.03
2019-02-15T03:44:41.542Z,-0.02
2019-02-15T03:47:11.915Z,0.03
2019-02-15T03:49:41.488Z,-0.16
2019-02-15T03:52:11.336Z,-0.18
2019-02-15T03:54:44.309Z,-0.23
2019-02-15T03:57:13.867Z,-0.21
2019-02-15T03:59:43.721Z,-0.24
2019-02-15T04:02:15.061Z,-0.26
2019-02-15T04:04:44.627Z,-0.27
2019-02-15T04:07:14.236Z,-0.20
2019-02-15T04:09:43.977Z,-0.19
2019-02-15T04:12:15.167Z,-0.16
2019-02-15T04:14:44.983Z,-0.18
2019-02-15T04:17:14.586Z,-0.23
2019-02-15T04:19:44.350Z,-0.27
2019-02-15T04:22:13.962Z,-0.30
2019-02-15T04:24:43.539Z,-0.32
2019-02-15T04:27:13.110Z,-0.26
2019-02-15T04:29:42.716Z,-0.31
2019-02-15T04:32:12.290Z,-0.28
2019-02-15T04:34:41.891Z,-0.42
2019-02-15T04:37:11.524Z,-0.41
2019-02-15T04:39:41.132Z,-0.41
2019-02-15T04:42:10.740Z,-0.45
2019-02-15T04:44:42.797Z,-0.39
2019-02-15T04:47:11.730Z,-0.39
2019-02-15T04:49:41.319Z,-0.41
2019-02-15T04:52:10.905Z,-0.53
2019-02-15T04:54:40.516Z,-0.52
2019-02-15T04:57:11.047Z,-0.52
2019-02-15T04:59:40.876Z,-0.55
2019-02-15T05:02:10.626Z,-0.56
2019-02-15T05:04:40.246Z,-0.60
2019-02-15T05:07:10.254Z,-0.76
2019-02-15T05:09:39.865Z,-0.71
2019-02-15T05:12:09.287Z,-0.63
2019-02-15T05:14:38.932Z,-0.68
2019-02-15T05:17:08.506Z,-0.67
2019-02-15T05:19:38.100Z,-0.57
2019-02-15T05:22:07.707Z,-0.53
2019-02-15T05:24:37.348Z,-0.56
2019-02-15T05:27:06.950Z,-0.54
2019-02-15T05:29:36.597Z,-0.49
2019-02-15T05:32:06.183Z,-0.50
2019-02-15T05:34:35.863Z,-0.43
2019-02-15T05:37:05.476Z,-0.44
2019-02-15T05:39:35.014Z,-0.38
2019-02-15T05:42:04.616Z,-0.45
2019-02-15T05:44:34.223Z,-0.48
2019-02-15T05:47:03.824Z,-0.55
2019-02-15T05:49:33.399Z,-0.61
2019-02-15T05:52:03.091Z,-0.61
2019-02-15T05:54:32.722Z,-0.57
2019-02-15T05:57:02.287Z,-0.56
2019-02-15T05:59:33.284Z,-0.54
2019-02-15T06:02:02.890Z,-0.50
2019-02-15T06:04:32.470Z,-0.47
2019-02-15T06:07:02.108Z,-0.59
2019-02-15T06:09:31.686Z,-0.48
2019-02-15T06:12:01.269Z,-0.50
2019-02-15T06:14:30.863Z,-0.53
2019-02-15T06:17:01.852Z,-0.58
2019-02-15T06:19:31.690Z,-0.54
2019-02-15T06:22:01.469Z,-0.45
2019-02-15T06:24:31.061Z,-0.46
2019-02-15T06:27:00.702Z,-0.51
2019-02-15T06:29:30.318Z,-0.51
2019-02-15T06:31:59.925Z,-0.52
2019-02-15T06:34:35.275Z,-0.51
2019-02-15T06:37:04.849Z,-0.46
2019-02-15T06:39:34.479Z,-0.44
2019-02-15T06:42:04.098Z,-0.48
2019-02-15T06:44:33.817Z,-0.41
2019-02-15T06:47:03.381Z,-0.25
2019-02-15T06:49:33.049Z,-0.18
2019-02-15T06:52:03.205Z,-0.16
2019-02-15T06:54:32.796Z,-0.17
2019-02-15T06:57:05.510Z,-0.17
2019-02-15T06:59:36.666Z,-0.14
2019-02-15T07:02:07.821Z,-0.27
2019-02-15T07:04:39.274Z,-0.19
2019-02-15T07:07:08.997Z,-0.04
2019-02-15T07:09:38.597Z,0.05
2019-02-15T07:12:08.268Z,0.14
2019-02-15T07:14:37.859Z,0.30
2019-02-15T07:17:07.441Z,0.80
2019-02-15T07:19:37.058Z,2.20
2019-02-15T07:22:06.638Z,4.32
2019-02-15T07:24:36.191Z,6.44
2019-02-15T07:27:05.881Z,8.33
2019-02-15T07:29:35.475Z,9.83
2019-02-15T07:32:06.591Z,11.16
2019-02-15T07:34:36.176Z,11.90
2019-02-15T07:37:05.759Z,13.06
2019-02-15T07:39:35.372Z,14.03
2019-02-15T07:42:05.085Z,14.93
2019-02-15T07:44:34.734Z,15.80
2019-02-15T07:47:04.418Z,16.67
2019-02-15T07:49:34.151Z,17.46
2019-02-15T07:52:03.759Z,18.01
2019-02-15T07:54:33.348Z,18.83
2019-02-15T07:57:02.949Z,19.38
2019-02-15T07:59:32.561Z,20.00
2019-02-15T08:02:03.045Z,20.41
2019-02-15T08:04:32.926Z,20.97
2019-02-15T08:07:05.374Z,21.50
2019-02-15T08:09:34.954Z,21.75
2019-02-15T08:12:04.567Z,22.24
2019-02-15T08:14:34.194Z,22.73
2019-02-15T08:17:03.754Z,22.94
2019-02-15T08:19:33.712Z,23.33
2019-02-15T08:22:03.295Z,23.87
2019-02-15T08:24:32.873Z,24.23
2019-02-15T08:27:02.483Z,23.44
2019-02-15T08:29:32.243Z,23.98
2019-02-15T08:32:01.822Z,24.23
2019-02-15T08:34:31.493Z,24.61
2019-02-15T08:37:01.037Z,25.34
2019-02-15T08:39:30.654Z,25.63
2019-02-15T08:42:03.892Z,24.43
2019-02-15T08:44:31.583Z,21.79
2019-02-15T08:47:01.191Z,24.31
2019-02-15T08:49:30.817Z,25.73
2019-02-15T08:52:00.394Z,26.95
2019-02-15T08:54:29.995Z,26.16
2019-02-15T08:56:59.596Z,26.67
2019-02-15T08:59:29.173Z,27.75
2019-02-15T09:02:19.687Z,27.44
2019-02-15T09:04:50.630Z,26.11
2019-02-15T09:07:20.221Z,23.76
2019-02-15T09:09:49.822Z,19.15
2019-02-15T09:12:19.408Z,18.22
2019-02-15T09:14:48.983Z,22.88
2019-02-15T09:17:19.289Z,22.86
2019-02-15T09:19:48.879Z,26.13
2019-02-15T09:22:19.453Z,26.71
2019-02-15T09:24:49.048Z,27.33
2019-02-15T09:27:20.273Z,28.92
2019-02-15T09:29:49.864Z,29.74
2019-02-15T09:32:19.481Z,30.50
2019-02-15T09:34:49.055Z,30.72
2019-02-15T09:37:18.657Z,31.10
2019-02-15T09:39:48.286Z,31.17
2019-02-15T09:42:18.116Z,31.24
2019-02-15T09:44:47.728Z,31.55
2019-02-15T09:47:17.312Z,31.09
2019-02-15T09:49:46.889Z,27.96
2019-02-15T09:52:16.463Z,30.18
2019-02-15T09:54:46.079Z,30.40
2019-02-15T09:57:15.692Z,30.74
2019-02-15T09:59:45.281Z,30.18
2019-02-15T10:02:14.913Z,30.39
2019-02-15T10:04:44.570Z,30.16
2019-02-15T10:07:14.181Z,30.95
2019-02-15T10:09:43.764Z,30.79
2019-02-15T10:12:13.368Z,30.06
2019-02-15T10:14:48.676Z,31.31
2019-02-15T10:17:18.746Z,30.94
2019-02-15T10:19:48.361Z,31.23
2019-02-15T10:22:17.967Z,32.13
2019-02-15T10:24:47.589Z,31.26
2019-02-15T10:27:17.316Z,31.41
2019-02-15T10:29:46.896Z,32.01
2019-02-15T10:32:16.605Z,32.48
2019-02-15T10:34:51.754Z,32.39
2019-02-15T10:37:21.345Z,31.66
2019-02-15T10:39:51.176Z,31.64
2019-02-15T10:42:20.780Z,31.45
2019-02-15T10:44:50.381Z,31.22
2019-02-15T10:47:24.958Z,30.04
2019-02-15T10:49:54.277Z,27.66
2019-02-15T10:52:23.875Z,29.07
2019-02-15T10:54:53.554Z,29.95
2019-02-15T10:57:23.209Z,30.03
2019-02-15T10:59:52.751Z,26.94
2019-02-15T11:02:22.415Z,28.32
2019-02-15T11:04:52.050Z,27.39
2019-02-15T11:07:21.654Z,27.08
2019-02-15T11:09:51.255Z,23.24
2019-02-15T11:12:21.822Z,25.38
2019-02-15T11:14:51.448Z,26.42
2019-02-15T11:17:20.879Z,26.96
2019-02-15T11:19:50.524Z,27.41
2019-02-15T11:22:22.077Z,28.63
2019-02-15T11:24:51.668Z,27.83
2019-02-15T11:27:21.246Z,27.21
2019-02-15T11:29:50.866Z,25.65
2019-02-15T11:32:20.447Z,24.88
2019-02-15T11:34:50.077Z,24.61
2019-02-15T11:37:19.927Z,24.94
2019-02-15T11:39:49.555Z,26.32
2019-02-15T11:42:19.122Z,22.96
2019-02-15T11:44:48.741Z,20.56
2019-02-15T11:47:20.012Z,20.33
2019-02-15T11:49:49.624Z,21.00
2019-02-15T11:52:19.251Z,23.67
2019-02-15T11:54:48.811Z,23.08
2019-02-15T11:57:18.387Z,21.88
2019-02-15T11:59:48.033Z,23.19
2019-02-15T12:02:17.641Z,23.06
2019-02-15T12:04:47.228Z,19.57
2019-02-15T12:07:16.839Z,22.47
2019-02-15T12:09:56.074Z,23.67
2019-02-15T12:12:25.694Z,25.66
2019-02-15T12:14:55.391Z,25.04
2019-02-15T12:17:25.427Z,26.00
2019-02-15T12:19:55.133Z,25.82
2019-02-15T12:22:27.126Z,24.03
2019-02-15T12:24:56.717Z,26.24
2019-02-15T12:27:27.093Z,26.86
2019-02-15T12:29:56.694Z,27.52
2019-02-15T12:32:26.732Z,27.98
2019-02-15T12:34:56.367Z,26.42
2019-02-15T12:37:25.967Z,25.71
2019-02-15T12:39:55.538Z,25.49
2019-02-15T12:42:25.182Z,26.74
2019-02-15T12:44:54.872Z,26.96
2019-02-15T12:47:24.461Z,25.15
2019-02-15T12:49:55.663Z,26.78
2019-02-15T12:52:28.375Z,27.83
2019-02-15T12:54:57.974Z,27.99
2019-02-15T12:57:27.600Z,25.82
2019-02-15T12:59:57.162Z,25.68
2019-02-15T13:02:26.753Z,23.06
2019-02-15T13:04:57.222Z,23.26
2019-02-15T13:07:26.818Z,22.17
2019-02-15T13:10:17.298Z,20.97
2019-02-15T13:12:47.050Z,21.43
2019-02-15T13:15:16.799Z,23.14
2019-02-15T13:17:46.711Z,23.37
2019-02-15T13:20:16.375Z,25.16
2019-02-15T13:22:45.926Z,25.99
2019-02-15T13:25:17.038Z,26.37
2019-02-15T13:27:46.626Z,24.32
2019-02-15T13:30:17.749Z,22.14
2019-02-15T13:32:47.622Z,22.94
2019-02-15T13:35:21.637Z,22.89
2019-02-15T13:37:51.207Z,24.08
2019-02-15T13:40:20.826Z,24.77
2019-02-15T13:42:50.487Z,23.12
2019-02-15T13:45:20.047Z,24.51
2019-02-15T13:47:49.653Z,22.38
2019-02-15T13:50:19.436Z,24.29
2019-02-15T13:52:49.136Z,24.59
2019-02-15T13:55:18.737Z,24.98
2019-02-15T13:57:48.524Z,23.75
2019-02-15T14:00:18.103Z,22.25
2019-02-15T14:02:47.728Z,22.18
2019-02-15T14:05:19.954Z,23.28
2019-02-15T14:07:49.537Z,21.12
2019-02-15T14:10:19.150Z,20.86
2019-02-15T14:12:48.820Z,19.27
2019-02-15T14:15:19.662Z,19.73
2019-02-15T14:17:49.244Z,18.48
2019-02-15T14:20:18.872Z,18.99
2019-02-15T14:23:07.754Z,18.44
2019-02-15T14:25:37.335Z,18.20
2019-02-15T14:28:06.910Z,17.30
2019-02-15T14:30:36.592Z,17.23
2019-02-15T14:33:06.125Z,16.95
2019-02-15T14:35:35.723Z,16.76
2019-02-15T14:38:05.402Z,16.65
2019-02-15T14:40:35.033Z,16.81
2019-02-15T14:43:04.604Z,17.05
2019-02-15T14:45:34.232Z,16.90
2019-02-15T14:48:03.786Z,16.57
2019-02-15T14:50:33.357Z,16.70
2019-02-15T14:53:11.962Z,16.73
2019-02-15T14:55:41.557Z,16.60
2019-02-15T14:58:30.429Z,16.38
2019-02-15T15:01:00.413Z,16.30
2019-02-15T15:03:29.997Z,16.21
2019-02-15T15:06:01.215Z,15.95
2019-02-15T15:08:30.896Z,15.85
2019-02-15T15:11:00.485Z,15.85
2019-02-15T15:13:30.091Z,15.90
2019-02-15T15:15:59.817Z,15.61
2019-02-15T15:18:29.421Z,15.59
2019-02-15T15:20:59.093Z,15.73
2019-02-15T15:23:28.649Z,15.65
2019-02-15T15:25:59.901Z,15.30
2019-02-15T15:28:29.484Z,15.28
2019-02-15T15:30:59.097Z,15.35
2019-02-15T15:33:28.688Z,15.23
2019-02-15T15:35:58.273Z,15.24
2019-02-15T15:38:27.879Z,15.01
2019-02-15T15:40:57.446Z,14.91
2019-02-15T15:43:27.238Z,14.64
2019-02-15T15:45:56.829Z,14.63
2019-02-15T15:48:26.412Z,14.70
2019-02-15T15:50:56.070Z,14.76
2019-02-15T15:53:25.601Z,14.73
2019-02-15T15:55:55.211Z,14.51
2019-02-15T15:58:24.844Z,14.47
2019-02-15T16:00:54.474Z,14.51
2019-02-15T16:03:24.083Z,14.36
2019-02-15T16:05:53.691Z,14.35
2019-02-15T16:08:23.265Z,14.18
2019-02-15T16:10:52.860Z,14.02
2019-02-15T16:13:22.467Z,13.83
2019-02-15T16:15:52.062Z,13.84
2019-02-15T16:18:21.733Z,13.82
2019-02-15T16:20:51.347Z,13.52
2019-02-15T16:23:20.930Z,13.45
2019-02-15T16:25:50.486Z,13.33
2019-02-15T16:28:20.171Z,13.36
2019-02-15T16:30:49.741Z,13.16
2019-02-15T16:33:19.346Z,13.20
2019-02-15T16:35:48.827Z,12.99
2019-02-15T16:38:18.432Z,12.97
2019-02-15T16:41:07.344Z,12.79
2019-02-15T16:43:36.895Z,12.59
2019-02-15T16:46:06.459Z,12.56
2019-02-15T16:48:42.131Z,12.41
2019-02-15T16:51:07.368Z,12.42
2019-02-15T16:53:36.921Z,12.29
2019-02-15T16:56:06.532Z,12.12
2019-02-15T16:58:36.106Z,12.09
2019-02-15T17:01:05.942Z,11.96
2019-02-15T17:03:35.526Z,11.84
2019-02-15T17:06:05.187Z,11.72
2019-02-15T17:08:37.647Z,11.48
2019-02-15T17:11:07.544Z,11.16
2019-02-15T17:13:37.158Z,10.93
2019-02-15T17:16:06.702Z,10.68
2019-02-15T17:18:37.498Z,10.53
2019-02-15T17:21:07.078Z,10.36
2019-02-15T17:23:36.725Z,10.26
2019-02-15T17:26:06.300Z,10.07
2019-02-15T17:28:35.880Z,9.99
2019-02-15T17:31:05.428Z,9.91
2019-02-15T17:33:37.395Z,9.80
2019-02-15T17:36:06.971Z,9.64
2019-02-15T17:38:36.545Z,9.47
2019-02-15T17:41:06.139Z,9.35
2019-02-15T17:43:35.690Z,9.32
2019-02-15T17:46:05.342Z,9.10
2019-02-15T17:48:34.984Z,8.90
2019-02-15T17:51:04.513Z,8.76
2019-02-15T17:53:34.076Z,8.65
2019-02-15T17:56:03.758Z,8.50
2019-02-15T17:58:52.618Z,7.93
2019-02-15T18:01:22.228Z,8.41
2019-02-15T18:03:51.784Z,8.30
2019-02-15T18:06:21.389Z,8.09
2019-02-15T18:08:51.035Z,7.87
2019-02-15T18:11:20.605Z,7.83
2019-02-15T18:13:50.189Z,7.69
2019-02-15T18:16:21.445Z,7.68
2019-02-15T18:18:51.988Z,7.65
2019-02-15T18:21:21.582Z,7.57
2019-02-15T18:23:51.165Z,7.49
2019-02-15T18:26:20.912Z,7.35
2019-02-15T18:29:10.104Z,7.26
2019-02-15T18:31:39.696Z,7.00
2019-02-15T18:34:09.282Z,6.81
2019-02-15T18:36:38.865Z,6.82
2019-02-15T18:39:09.384Z,6.85
2019-02-15T18:41:38.948Z,6.74
2019-02-15T18:44:08.650Z,6.79
2019-02-15T18:46:38.230Z,6.65
2019-02-15T18:49:07.795Z,6.68
2019-02-15T18:51:37.396Z,6.59
2019-02-15T18:54:06.948Z,6.45
2019-02-15T18:56:36.499Z,6.43
2019-02-15T18:59:06.121Z,6.47
2019-02-15T19:01:35.664Z,6.34
2019-02-15T19:04:05.328Z,6.35
2019-02-15T19:06:36.490Z,6.30
2019-02-15T19:09:06.984Z,6.21
2019-02-15T19:11:36.568Z,6.18
2019-02-15T19:14:06.197Z,6.11
2019-02-15T19:16:35.781Z,6.06
2019-02-15T19:19:05.733Z,5.79
2019-02-15T19:21:35.315Z,5.83
2019-02-15T19:24:06.368Z,5.88
2019-02-15T19:26:35.935Z,5.90
2019-02-15T19:29:05.620Z,5.91
2019-02-15T19:31:35.169Z,5.90
2019-02-15T19:34:04.744Z,5.89
2019-02-15T19:36:34.339Z,5.86
2019-02-15T19:39:05.592Z,5.90
2019-02-15T19:41:35.145Z,5.85
2019-02-15T19:44:04.800Z,5.67
2019-02-15T19:46:34.384Z,5.39
2019-02-15T19:49:03.942Z,5.39
2019-02-15T19:51:33.516Z,5.32
2019-02-15T19:54:03.100Z,5.30
2019-02-15T19:56:32.664Z,5.25
2019-02-15T19:59:02.299Z,5.10
2019-02-15T20:01:31.815Z,5.07
2019-02-15T20:04:01.410Z,5.08
2019-02-15T20:06:31.105Z,4.94
2019-02-15T20:09:00.654Z,4.75
2019-02-15T20:11:30.243Z,4.72
2019-02-15T20:14:00.206Z,4.74
2019-02-15T20:16:29.880Z,4.73
2019-02-15T20:18:59.451Z,4.69
2019-02-15T20:21:29.321Z,4.61
2019-02-15T20:23:58.868Z,4.57
2019-02-15T20:26:28.447Z,4.51
2019-02-15T20:28:58.043Z,4.46
2019-02-15T20:31:27.623Z,4.44
2019-02-15T20:33:57.216Z,4.39
2019-02-15T20:36:26.821Z,4.35
2019-02-15T20:38:56.400Z,4.19
2019-02-15T20:41:27.450Z,4.14
2019-02-15T20:43:57.057Z,4.10
2019-02-15T20:46:26.634Z,3.96
2019-02-15T20:49:04.339Z,3.83
2019-02-15T20:51:27.564Z,3.99
2019-02-15T20:53:57.127Z,3.95
2019-02-15T20:56:26.725Z,3.87
2019-02-15T20:58:56.331Z,3.84
2019-02-15T21:01:25.875Z,3.70
2019-02-15T21:03:55.458Z,3.64
2019-02-15T21:06:25.095Z,3.50
2019-02-15T21:08:54.706Z,3.54
2019-02-15T21:11:24.280Z,3.60
2019-02-15T21:13:54.048Z,3.61
2019-02-15T21:16:23.632Z,3.50
2019-02-15T21:18:53.188Z,3.43
2019-02-15T21:21:22.796Z,3.41
2019-02-15T21:23:52.344Z,3.35
2019-02-15T21:26:21.938Z,3.37
2019-02-15T21:28:51.507Z,3.34
2019-02-15T21:31:21.059Z,3.19
2019-02-15T21:33:50.645Z,3.22
2019-02-15T21:36:20.261Z,3.19
2019-02-15T21:38:49.844Z,3.15
2019-02-15T21:41:19.392Z,3.11
2019-02-15T21:43:49.057Z,3.09
2019-02-15T21:46:18.638Z,3.09
2019-02-15T21:48:48.197Z,2.95
2019-02-15T21:51:17.776Z,2.98
2019-02-15T21:53:47.328Z,2.98
2019-02-15T21:56:16.922Z,3.02
2019-02-15T21:58:46.613Z,2.90
2019-02-15T22:01:16.190Z,2.91
2019-02-15T22:03:45.765Z,2.95
2019-02-15T22:06:15.395Z,2.94
2019-02-15T22:08:44.975Z,3.04
2019-02-15T22:11:14.540Z,2.97
2019-02-15T22:13:44.217Z,2.95
2019-02-15T22:16:13.776Z,2.92
2019-02-15T22:18:43.399Z,2.93
2019-02-15T22:21:12.998Z,2.89
2019-02-15T22:23:44.061Z,2.87
2019-02-15T22:26:14.409Z,2.87
2019-02-15T22:28:44.192Z,2.86
2019-02-15T22:31:13.748Z,2.73
2019-02-15T22:33:43.332Z,2.70
2019-02-15T22:36:12.908Z,2.60
2019-02-15T22:38:42.501Z,2.55
2019-02-15T22:41:14.891Z,2.56
2019-02-15T22:43:47.782Z,2.48
2019-02-15T22:46:17.540Z,2.44
2019-02-15T22:48:47.091Z,2.33
2019-02-15T22:51:16.898Z,2.34
2019-02-15T22:53:46.548Z,2.33
2019-02-15T22:56:16.125Z,2.36
2019-02-15T22:58:45.751Z,2.39
2019-02-15T23:01:17.604Z,2.46
2019-02-15T23:03:47.311Z,2.31
2019-02-15T23:06:16.966Z,2.39
2019-02-15T23:08:46.998Z,2.34
2019-02-15T23:11:16.828Z,2.34
2019-02-15T23:13:46.427Z,2.25
2019-02-15T23:16:15.996Z,2.24
2019-02-15T23:18:45.553Z,2.10
2019-02-15T23:21:15.164Z,2.05
2019-02-15T23:23:44.783Z,2.07
2019-02-15T23:26:15.603Z,1.93
2019-02-15T23:28:45.203Z,1.87
2019-02-15T23:31:14.764Z,1.79
2019-02-15T23:33:44.351Z,1.76
2019-02-15T23:36:14.235Z,1.83
2019-02-15T23:38:43.800Z,1.92
2019-02-15T23:41:13.382Z,1.95
2019-02-15T23:43:42.956Z,1.90
2019-02-15T23:46:12.521Z,1.88
2019-02-15T23:48:42.105Z,1.75
2019-02-15T23:51:11.710Z,1.66
2019-02-15T23:53:41.437Z,1.66
2019-02-15T23:56:11.024Z,1.59
2019-02-15T23:58:59.889Z,1.59
